Gustavo Medina

Scout - Argentinos Juniors
8 Okt 2028
Sonntag
Verarbeitung

Persönlichkeit

Anpassungsfähigkeit (6) Ehrgeiz (17) Kontroverse (9) Loyalität (17) Druck (14) Professionalität (2) Fairness (6) Temperament (5)

Profil

Trainerstil Demokratisch
Lizenz Nationale B
Entschlossenheit 10
Menschenführung 7
Motivation 4
Disziplin 12
Arbeitszufriedenheit
100%
Ermüdung
0%
Rolle Scout
Gehalt 32.3K p/W
Vertrag 14.03.2029

Leistung

Verhalten Gut
Trainingseffektivität
38%
Spielerentwicklung
60%
Verletzungsprävention
20%
Taktische Umsetzung
25%

Letzte Ereignisse

Nahm an einer Scouting-Besprechung teil 7T her
Nahm an einer Scouting-Besprechung teil 7T her
Nahm an einer Scouting-Besprechung teil 14T her
Nahm an einer Scouting-Besprechung teil 14T her
Nahm an einer Scouting-Besprechung teil 21T her
Nahm an einer Scouting-Besprechung teil 21T her
Nahm an einer Scouting-Besprechung teil 28T her
Nahm an einer Scouting-Besprechung teil 28T her

Aktuell beobachtet

114
Spieler Verein Status Fähigkeit Vertrauen Beobachtet Zuletzt beobachtet Letzte Stimme
Francisco Machis Llaneros Aktiv 94 / 91 40% 2 28.11.2027 -
Josh Acheampong Everton Aktiv 144 / 154 40% 1 28.11.2027 -
Tiago Gordillo San Miguel Aktiv 91 / 101 40% 2 27.11.2027 -
Ángel Aguayo Sol de America Aktiv 100 / 94 40% 1 27.11.2027 -
Olivier Mambwa Young Boys Aktiv 96 / 113 40% 1 25.11.2027 -
Nicolás Barros Schelotto Gimnasia La Plata Aktiv 125 / 131 40% 2 24.11.2027 -
Esquerdinha Notts County Aktiv 133 / 119 40% 1 22.11.2027 -
Onyeuche Ujunwa Ikorodu City Aktiv 100 / 92 40% 1 21.11.2027 -
Nupe Godstime Bayelsa United Aktiv 73 / 87 40% 1 20.11.2027 -
Francisco Triver River Plate Aktiv 101 / 102 40% 1 20.11.2027 -
Archie Gray Southampton Aktiv 143 / 158 40% 1 16.11.2027 -
Jeremías Merlo Gimnasia La Plata Aktiv 117 / 127 40% 1 16.11.2027 -
Dylan Cabral Arsenal Aktiv 109 / 104 40% 1 15.11.2027 -
Matias Siltanen Malmo FF Aktiv 117 / 135 40% 2 14.11.2027 -
Oscar Steinke Brånby Hammarby Aktiv 118 / 99 40% 1 14.11.2027 -
Ayden Heaven Portsmouth Aktiv 134 / 156 40% 1 13.11.2027 -
Amaury Morales Leon Aktiv 114 / 118 40% 1 13.11.2027 -
Colin Guske Orlando City Aktiv 98 / 98 40% 3 11.11.2027 -
Facundo Balatti Penarol Aktiv 101 / 110 40% 1 11.11.2027 -
Hassan Beja AFC Leopards Aktiv 97 / 99 40% 1 10.11.2027 -
Francisco Marchant Colo-Colo Aktiv 92 / 98 40% 1 10.11.2027 -
Rasmus Nehrman Gefle Aktiv 68 / 90 40% 1 08.11.2027 -
Ruben Ramos LA Galaxy Aktiv 96 / 105 40% 1 05.11.2027 -
Mohamed Moussa Koïta Mathare United Aktiv 98 / 94 40% 1 05.11.2027 -
Adrian Skogmar Malmo FF Aktiv 111 / 128 40% 1 03.11.2027 -
Victor Hernandez Santa Fe Aktiv 118 / 123 40% 1 03.11.2027 -
Juan Camilo Córdoba Deportivo Pereira Aktiv 78 / 89 40% 1 01.11.2027 -
Lucas Da Cunha Como Aktiv 153 / 153 40% 3 29.05.2027 -
Niccolò Pierozzi Palermo Aktiv 140 / 125 40% 3 28.05.2027 -
Nicolò Rovella Lazio Aktiv 148 / 153 40% 1 24.05.2027 -
Diego Gómez Brighton Aktiv 159 / 147 40% 3 23.05.2027 -
Lewis Ferguson Bologna Aktiv 138 / 139 40% 5 20.05.2027 -
Jordan Zemura Udinese Aktiv 124 / 127 40% 3 19.05.2027 -
Stefano Di Mario Virtus Entella Aktiv 115 / 133 40% 1 16.05.2027 -
Savinho Tottenham Aktiv 171 / 163 40% 1 16.05.2027 -
Arthur Atta Fiorentina Aktiv 134 / 137 40% 3 15.05.2027 -
Rolando Mandragora Torino Aktiv 136 / 149 40% 1 13.05.2027 -
Danilo Veiga Lecce Aktiv 111 / 126 40% 2 08.05.2027 -
Giorgi Kvernadze Frosinone Aktiv 120 / 134 40% 1 05.05.2027 -
Nicolò Fagioli Fiorentina Aktiv 141 / 130 40% 1 02.05.2027 -
Ferland Mendy Real Madrid Aktiv 143 / 152 40% 2 01.05.2027 -
Mehdi Dorval Catanzaro Aktiv 141 / 129 40% 1 30.04.2027 -
Thierry Rendall Correia Venezia Aktiv 144 / 144 40% 1 23.04.2027 -
André-Franck Zambo Anguissa Napoli Aktiv 155 / 166 40% 2 20.04.2027 -
Alessandro Buongiorno Cagliari Aktiv 157 / 164 40% 3 20.04.2027 -
Nuno Tavares Lazio Aktiv 159 / 137 40% 2 15.04.2027 -
Sindre Walle Egeli Udinese Aktiv 145 / 129 40% 1 15.04.2027 -
Mitchel Bakker Modena Aktiv 142 / 133 40% 2 11.04.2027 -
Enrico Delprato Parma Aktiv 142 / 146 40% 1 11.04.2027 -
Bongani Zungu Ajax Cape Town Aktiv 120 / 122 40% 1 11.04.2027 -
Gustav Isaksen Lazio Aktiv 160 / 145 40% 1 05.04.2027 -
Adrián Bernabé Parma Aktiv 151 / 137 40% 1 29.03.2027 -
Shea Charles Southampton Aktiv 135 / 140 40% 1 26.03.2027 -
Georginio Rutter Brighton Aktiv 136 / 143 40% 1 26.03.2027 -
Rodrigo Gomes Wolverhampton Aktiv 129 / 136 40% 2 24.03.2027 -
Max Johnston Derby County Aktiv 130 / 130 40% 2 24.03.2027 -
Adam Randell Bristol City Aktiv 124 / 131 40% 1 24.03.2027 -
Aidan Morris Middlesbrough Aktiv 116 / 136 40% 2 22.03.2027 -
Brooke Norton-Cuffy Hull City Aktiv 122 / 128 40% 1 22.03.2027 -
Olivier Boscagli Brighton Aktiv 157 / 145 40% 1 21.03.2027 -
Finn Azaz Southampton Aktiv 115 / 125 40% 1 21.03.2027 -
Jarrad Branthwaite Everton Aktiv 158 / 163 40% 2 19.03.2027 -
Jacob Greaves Ipswich Town Aktiv 130 / 133 40% 1 17.03.2027 -
Jack Currie Oxford United Aktiv 127 / 129 40% 1 15.03.2027 -
Alex Scott Bournemouth Aktiv 136 / 162 40% 1 15.03.2027 -
Óscar Mingueza Crystal Palace Aktiv 136 / 137 40% 3 14.03.2027 -
Jack Rudoni Coventry City Aktiv 145 / 142 40% 1 12.03.2027 -
Oswin Appollis Orlando Pirates Aktiv 135 / 109 40% 1 12.03.2027 -
Manor Solomon West Ham United Aktiv 143 / 151 40% 1 04.03.2027 -
Adam Wharton Crystal Palace Aktiv 149 / 152 40% 2 25.02.2027 -
Oliver Skipp Leicester City Aktiv 119 / 128 40% 1 25.02.2027 -
Dara O'Shea Ipswich Town Aktiv 135 / 144 40% 2 24.02.2027 -
Japhet Tanganga Sheffield United Aktiv 133 / 123 40% 1 24.02.2027 -
Milan van Ewijk Coventry City Aktiv 116 / 132 40% 1 23.02.2027 -
Nico O'Reilly Manchester City Aktiv 137 / 165 40% 1 23.02.2027 -
Max Bird Birmingham Aktiv 139 / 141 40% 2 19.02.2027 -
Ronnie Edwards Queens Park Rangers Aktiv 128 / 132 40% 1 17.02.2027 -
James Garner Everton Aktiv 155 / 145 40% 3 16.02.2027 -
Mikkel Damsgaard Brentford Aktiv 138 / 153 40% 2 15.02.2027 -
Raoul Bellanova Atalanta Aktiv 159 / 144 40% 2 12.02.2027 -
Marcelo Allende Mamelodi Sundowns Aktiv 127 / 125 40% 1 10.02.2027 -
Mats Wieffer Brighton Aktiv 140 / 160 40% 1 05.02.2027 -
Gabriel Gudmundsson Leeds United Aktiv 155 / 149 40% 1 04.02.2027 -
Yousef Salech Cardiff City Aktiv 133 / 133 40% 1 29.11.2026 Mehr Infos nötig
Marezi Portsmouth Aktiv 103 / 123 40% 1 24.11.2026 -
Justo Giani Umraniyespor Aktiv 135 / 131 40% 1 20.11.2026 -
Wessam Abou Ali Columbus Crew Aktiv 131 / 131 40% 1 20.11.2026 -
Tyrese Campbell Sheffield United Aktiv 115 / 128 40% 1 05.11.2026 -
Luciano Cosentino Wanderers Aktiv 120 / 126 40% 1 31.10.2026 -
Ivo Mammini Beitar Jerusalem Aktiv 133 / 111 40% 5 28.10.2026 -
Alejo Cruz Juventud Aktiv 119 / 117 40% 1 22.10.2026 -
Efraín Álvarez Aston Villa Aktiv 128 / 142 40% 1 18.10.2026 -
Jonás Luna Wanderers Aktiv 106 / 123 40% 2 16.10.2026 -
Kévin Denkey FC Cincinnati Aktiv 131 / 122 40% 2 16.10.2026 -
Matías Contrera Hrvatski Dragovoljac Aktiv 110 / 101 40% 1 12.10.2026 -
Tadeo Allende Inter Miami CF Aktiv 120 / 124 40% 1 11.10.2026 -
Matías Laurino Gornik Leczna Aktiv 109 / 92 40% 1 11.10.2026 -
Alejandro Pozo Standard Liege Aktiv 115 / 112 40% 1 08.10.2026 -
Germán Berterame Inter Miami CF Aktiv 136 / 134 40% 1 29.09.2026 -
Victor Olatunji Real Salt Lake Aktiv 113 / 119 40% 1 25.09.2026 -
Martín Ojeda Orlando City Aktiv 136 / 136 40% 1 24.09.2026 -
Ruyery Blanco Alianza Petrolera Aktiv 118 / 102 40% 1 18.09.2026 -
Aarón Mejía Tijuana Aktiv 126 / 128 40% 1 16.09.2026 -
Alexis Gutiérrez Club America Aktiv 112 / 117 40% 1 16.09.2026 -
Erik Lira Cruz Azul Aktiv 128 / 132 40% 1 15.09.2026 -
Víctor Guzmán Monterrey Aktiv 120 / 134 40% 1 15.09.2026 -
Ramón Juárez Club America Aktiv 132 / 132 40% 1 13.09.2026 -
José Alvarado Leon Aktiv 101 / 111 40% 1 12.09.2026 -
Tomás Alarcón Colo-Colo Aktiv 112 / 121 40% 1 11.09.2026 -
Bruno Amione Santos Laguna Aktiv 116 / 127 40% 1 11.09.2026 -
Brayan Moreno Santa Fe Aktiv 115 / 110 40% 1 10.09.2026 -
Pedro Vite Pumas UNAM Aktiv 132 / 119 40% 1 09.09.2026 -
Fidel Ambríz Monterrey Aktiv 137 / 132 40% 1 09.09.2026 -
Bruno Méndez Toluca Aktiv 119 / 128 40% 1 08.09.2026 -